sensor_id;sensor_type;location;lat;lon;timestamp;temperature;humidity
47765;DHT22;33529;49.242;8.670;2022-10-03T00:10:51;11.90;99.90
47765;DHT22;33529;49.242;8.670;2022-10-03T00:19:34;11.80;99.90
47765;DHT22;33529;49.242;8.670;2022-10-03T00:22:30;11.80;99.90
47765;DHT22;33529;49.242;8.670;2022-10-03T00:25:21;11.90;99.90
47765;DHT22;33529;49.242;8.670;2022-10-03T00:30:22;11.90;99.90
47765;DHT22;33529;49.242;8.670;2022-10-03T00:46:53;11.80;99.90
47765;DHT22;33529;49.242;8.670;2022-10-03T00:55:16;11.80;99.90
47765;DHT22;33529;49.242;8.670;2022-10-03T00:58:06;11.70;99.90
47765;DHT22;33529;49.242;8.670;2022-10-03T01:00:37;11.80;99.90
47765;DHT22;33529;49.242;8.670;2022-10-03T01:03:17;11.80;99.90
47765;DHT22;33529;49.242;8.670;2022-10-03T01:25:37;11.40;99.90
47765;DHT22;33529;49.242;8.670;2022-10-03T01:31:08;11.40;99.90
47765;DHT22;33529;49.242;8.670;2022-10-03T01:33:49;11.30;99.90
47765;DHT22;33529;49.242;8.670;2022-10-03T01:43:36;11.00;99.90
47765;DHT22;33529;49.242;8.670;2022-10-03T01:46:22;10.90;99.90
47765;DHT22;33529;49.242;8.670;2022-10-03T01:49:00;10.90;99.90
47765;DHT22;33529;49.242;8.670;2022-10-03T01:54:14;10.80;99.90
47765;DHT22;33529;49.242;8.670;2022-10-03T01:57:01;10.80;99.90
47765;DHT22;33529;49.242;8.670;2022-10-03T02:02:41;10.70;99.90
47765;DHT22;33529;49.242;8.670;2022-10-03T02:05:37;10.70;99.90
47765;DHT22;33529;49.242;8.670;2022-10-03T02:08:41;10.80;99.90
47765;DHT22;33529;49.242;8.670;2022-10-03T02:11:10;10.80;99.90
47765;DHT22;33529;49.242;8.670;2022-10-03T02:13:59;10.80;99.90
47765;DHT22;33529;49.242;8.670;2022-10-03T02:16:42;10.80;99.90
47765;DHT22;33529;49.242;8.670;2022-10-03T02:19:29;10.80;99.90
47765;DHT22;33529;49.242;8.670;2022-10-03T02:22:00;10.80;99.90
47765;DHT22;33529;49.242;8.670;2022-10-03T02:24:40;10.90;99.90
47765;DHT22;33529;49.242;8.670;2022-10-03T02:27:31;10.90;99.90
47765;DHT22;33529;49.242;8.670;2022-10-03T02:53:51;11.00;99.90
47765;DHT22;33529;49.242;8.670;2022-10-03T03:08:09;10.60;99.90
47765;DHT22;33529;49.242;8.670;2022-10-03T03:25:37;10.50;99.90
47765;DHT22;33529;49.242;8.670;2022-10-03T03:28:23;10.40;99.90
47765;DHT22;33529;49.242;8.670;2022-10-03T03:31:09;10.50;99.90
47765;DHT22;33529;49.242;8.670;2022-10-03T03:56:46;10.30;99.90
47765;DHT22;33529;49.242;8.670;2022-10-03T04:01:53;10.30;99.90
47765;DHT22;33529;49.242;8.670;2022-10-03T04:04:38;10.30;99.90
47765;DHT22;33529;49.242;8.670;2022-10-03T04:10:14;10.20;99.90
47765;DHT22;33529;49.242;8.670;2022-10-03T04:13:24;10.20;99.90
47765;DHT22;33529;49.242;8.670;2022-10-03T04:15:56;10.10;99.90
47765;DHT22;33529;49.242;8.670;2022-10-03T04:18:38;10.20;99.90
47765;DHT22;33529;49.242;8.670;2022-10-03T04:35:18;10.20;99.90
47765;DHT22;33529;49.242;8.670;2022-10-03T04:38:10;10.20;99.90
47765;DHT22;33529;49.242;8.670;2022-10-03T04:43:39;10.20;99.90
47765;DHT22;33529;49.242;8.670;2022-10-03T04:49:15;10.00;99.90
47765;DHT22;33529;49.242;8.670;2022-10-03T04:51:52;10.00;99.90
47765;DHT22;33529;49.242;8.670;2022-10-03T04:57:40;10.00;99.90
47765;DHT22;33529;49.242;8.670;2022-10-03T05:03:19;9.90;99.90
47765;DHT22;33529;49.242;8.670;2022-10-03T05:05:53;9.90;99.90
47765;DHT22;33529;49.242;8.670;2022-10-03T05:08:30;10.00;99.90
47765;DHT22;33529;49.242;8.670;2022-10-03T05:11:38;10.00;99.90
47765;DHT22;33529;49.242;8.670;2022-10-03T05:14:09;10.00;99.90
47765;DHT22;33529;49.242;8.670;2022-10-03T05:16:59;10.00;99.90
47765;DHT22;33529;49.242;8.670;2022-10-03T05:30:38;9.80;99.90
47765;DHT22;33529;49.242;8.670;2022-10-03T05:44:48;9.80;99.90
47765;DHT22;33529;49.242;8.670;2022-10-03T05:47:33;9.80;99.90
47765;DHT22;33529;49.242;8.670;2022-10-03T05:50:40;9.80;99.90
47765;DHT22;33529;49.242;8.670;2022-10-03T05:57:22;9.80;99.90
47765;DHT22;33529;49.242;8.670;2022-10-03T06:15:57;10.10;99.90
47765;DHT22;33529;49.242;8.670;2022-10-03T06:18:50;10.10;99.90
47765;DHT22;33529;49.242;8.670;2022-10-03T06:21:59;10.20;99.90
47765;DHT22;33529;49.242;8.670;2022-10-03T06:29:58;10.40;99.90
47765;DHT22;33529;49.242;8.670;2022-10-03T06:35:55;10.50;99.90
47765;DHT22;33529;49.242;8.670;2022-10-03T06:47:54;10.60;99.90
47765;DHT22;33529;49.242;8.670;2022-10-03T06:53:33;10.70;99.90
47765;DHT22;33529;49.242;8.670;2022-10-03T06:56:08;10.70;99.90
47765;DHT22;33529;49.242;8.670;2022-10-03T07:15:49;11.00;99.90
47765;DHT22;33529;49.242;8.670;2022-10-03T07:19:29;11.10;99.90
47765;DHT22;33529;49.242;8.670;2022-10-03T07:22:10;11.20;99.90
47765;DHT22;33529;49.242;8.670;2022-10-03T07:30:20;11.30;99.90
47765;DHT22;33529;49.242;8.670;2022-10-03T07:35:27;11.70;99.90
47765;DHT22;33529;49.242;8.670;2022-10-03T07:53:18;12.20;99.90
47765;DHT22;33529;49.242;8.670;2022-10-03T07:56:21;12.30;99.90
47765;DHT22;33529;49.242;8.670;2022-10-03T08:22:31;12.60;99.90
47765;DHT22;33529;49.242;8.670;2022-10-03T08:25:25;12.90;99.90
47765;DHT22;33529;49.242;8.670;2022-10-03T08:44:50;12.70;99.90
47765;DHT22;33529;49.242;8.670;2022-10-03T08:47:36;12.70;99.90
47765;DHT22;33529;49.242;8.670;2022-10-03T08:50:23;12.70;99.90
47765;DHT22;33529;49.242;8.670;2022-10-03T08:58:30;12.80;99.90
47765;DHT22;33529;49.242;8.670;2022-10-03T09:01:44;12.80;99.90
47765;DHT22;33529;49.242;8.670;2022-10-03T09:04:53;12.90;99.90
47765;DHT22;33529;49.242;8.670;2022-10-03T09:30:17;14.10;99.90
47765;DHT22;33529;49.242;8.670;2022-10-03T09:35:58;14.60;99.90
47765;DHT22;33529;49.242;8.670;2022-10-03T09:39:18;14.80;99.90
47765;DHT22;33529;49.242;8.670;2022-10-03T10:00:08;15.20;99.90
47765;DHT22;33529;49.242;8.670;2022-10-03T10:14:51;14.90;99.90
47765;DHT22;33529;49.242;8.670;2022-10-03T10:17:49;14.90;99.90
47765;DHT22;33529;49.242;8.670;2022-10-03T10:20:38;14.90;99.90
47765;DHT22;33529;49.242;8.670;2022-10-03T10:35:16;14.90;99.90
47765;DHT22;33529;49.242;8.670;2022-10-03T10:43:40;15.30;99.90
47765;DHT22;33529;49.242;8.670;2022-10-03T11:23:58;15.70;99.90
47765;DHT22;33529;49.242;8.670;2022-10-03T11:29:47;16.10;99.90
47765;DHT22;33529;49.242;8.670;2022-10-03T11:32:50;16.40;99.90
47765;DHT22;33529;49.242;8.670;2022-10-03T11:38:31;16.30;99.90
47765;DHT22;33529;49.242;8.670;2022-10-03T11:52:35;16.20;99.90
47765;DHT22;33529;49.242;8.670;2022-10-03T11:58:49;16.20;99.90
47765;DHT22;33529;49.242;8.670;2022-10-03T12:01:32;16.20;99.90
47765;DHT22;33529;49.242;8.670;2022-10-03T12:10:27;15.80;99.90
47765;DHT22;33529;49.242;8.670;2022-10-03T12:12:56;15.90;99.90
47765;DHT22;33529;49.242;8.670;2022-10-03T12:15:37;15.80;99.90
47765;DHT22;33529;49.242;8.670;2022-10-03T12:20:50;15.80;99.90
47765;DHT22;33529;49.242;8.670;2022-10-03T12:28:58;16.20;99.90
47765;DHT22;33529;49.242;8.670;2022-10-03T12:31:32;16.50;99.90
47765;DHT22;33529;49.242;8.670;2022-10-03T12:37:33;16.90;99.90
47765;DHT22;33529;49.242;8.670;2022-10-03T12:40:25;17.00;99.90
47765;DHT22;33529;49.242;8.670;2022-10-03T12:43:15;17.20;99.90
47765;DHT22;33529;49.242;8.670;2022-10-03T12:45:57;17.30;99.90
47765;DHT22;33529;49.242;8.670;2022-10-03T12:48:37;17.20;99.90
47765;DHT22;33529;49.242;8.670;2022-10-03T12:51:29;17.30;99.90
47765;DHT22;33529;49.242;8.670;2022-10-03T12:59:58;17.00;99.90
47765;DHT22;33529;49.242;8.670;2022-10-03T13:07:57;16.70;99.90
47765;DHT22;33529;49.242;8.670;2022-10-03T13:10:40;16.80;99.90
47765;DHT22;33529;49.242;8.670;2022-10-03T13:15:57;16.70;99.90
47765;DHT22;33529;49.242;8.670;2022-10-03T13:24:32;17.10;99.90
47765;DHT22;33529;49.242;8.670;2022-10-03T13:27:21;17.10;99.90
47765;DHT22;33529;49.242;8.670;2022-10-03T13:29:53;17.30;99.90
47765;DHT22;33529;49.242;8.670;2022-10-03T13:32:29;17.40;99.90
47765;DHT22;33529;49.242;8.670;2022-10-03T13:35:26;17.50;99.90
47765;DHT22;33529;49.242;8.670;2022-10-03T13:43:54;17.80;99.90
47765;DHT22;33529;49.242;8.670;2022-10-03T13:49:26;17.90;99.90
47765;DHT22;33529;49.242;8.670;2022-10-03T13:52:33;17.90;99.90
47765;DHT22;33529;49.242;8.670;2022-10-03T13:55:21;17.90;99.90
47765;DHT22;33529;49.242;8.670;2022-10-03T14:03:51;18.40;99.90
47765;DHT22;33529;49.242;8.670;2022-10-03T14:20:37;18.00;99.90
47765;DHT22;33529;49.242;8.670;2022-10-03T14:23:12;18.10;99.90
47765;DHT22;33529;49.242;8.670;2022-10-03T14:26:01;18.20;99.90
47765;DHT22;33529;49.242;8.670;2022-10-03T14:31:37;18.00;99.90
47765;DHT22;33529;49.242;8.670;2022-10-03T14:37:41;17.90;99.90
47765;DHT22;33529;49.242;8.670;2022-10-03T14:42:43;17.80;99.90
47765;DHT22;33529;49.242;8.670;2022-10-03T14:45:16;17.90;99.90
47765;DHT22;33529;49.242;8.670;2022-10-03T14:47:49;17.70;99.90
47765;DHT22;33529;49.242;8.670;2022-10-03T14:50:23;17.60;99.90
47765;DHT22;33529;49.242;8.670;2022-10-03T14:52:56;17.60;99.90
47765;DHT22;33529;49.242;8.670;2022-10-03T14:55:52;17.50;99.90
47765;DHT22;33529;49.242;8.670;2022-10-03T14:58:25;17.40;99.90
47765;DHT22;33529;49.242;8.670;2022-10-03T15:01:06;17.30;99.90
47765;DHT22;33529;49.242;8.670;2022-10-03T15:03:59;17.50;99.90
47765;DHT22;33529;49.242;8.670;2022-10-03T15:09:08;17.50;99.90
47765;DHT22;33529;49.242;8.670;2022-10-03T15:11:43;17.50;99.90
47765;DHT22;33529;49.242;8.670;2022-10-03T15:14:11;17.30;99.90
47765;DHT22;33529;49.242;8.670;2022-10-03T15:16:45;17.10;99.90
47765;DHT22;33529;49.242;8.670;2022-10-03T15:19:20;17.00;99.90
47765;DHT22;33529;49.242;8.670;2022-10-03T15:21:52;17.10;99.90
47765;DHT22;33529;49.242;8.670;2022-10-03T15:24:21;17.10;99.90
47765;DHT22;33529;49.242;8.670;2022-10-03T15:26:57;17.20;99.90
47765;DHT22;33529;49.242;8.670;2022-10-03T15:29:28;17.30;99.90
47765;DHT22;33529;49.242;8.670;2022-10-03T15:31:56;17.20;99.90
47765;DHT22;33529;49.242;8.670;2022-10-03T15:34:31;17.10;99.90
47765;DHT22;33529;49.242;8.670;2022-10-03T15:37:05;16.90;99.90
47765;DHT22;33529;49.242;8.670;2022-10-03T15:39:38;16.80;99.90
47765;DHT22;33529;49.242;8.670;2022-10-03T15:45:05;16.90;99.90
47765;DHT22;33529;49.242;8.670;2022-10-03T15:47:33;16.70;99.90
47765;DHT22;33529;49.242;8.670;2022-10-03T15:52:49;16.80;99.90
47765;DHT22;33529;49.242;8.670;2022-10-03T15:55:19;16.80;99.90
47765;DHT22;33529;49.242;8.670;2022-10-03T15:57:50;16.70;99.90
47765;DHT22;33529;49.242;8.670;2022-10-03T16:00:29;16.60;99.90
47765;DHT22;33529;49.242;8.670;2022-10-03T16:03:07;16.40;99.90
47765;DHT22;33529;49.242;8.670;2022-10-03T16:06:02;16.30;99.90
47765;DHT22;33529;49.242;8.670;2022-10-03T16:08:32;16.30;99.90
47765;DHT22;33529;49.242;8.670;2022-10-03T16:11:10;16.30;99.90
47765;DHT22;33529;49.242;8.670;2022-10-03T16:13:42;16.30;99.90
47765;DHT22;33529;49.242;8.670;2022-10-03T16:16:17;16.30;99.90
47765;DHT22;33529;49.242;8.670;2022-10-03T16:19:12;16.20;99.90
47765;DHT22;33529;49.242;8.670;2022-10-03T16:24:39;15.90;99.90
47765;DHT22;33529;49.242;8.670;2022-10-03T16:27:16;15.80;99.90
47765;DHT22;33529;49.242;8.670;2022-10-03T16:29:51;15.60;99.90
47765;DHT22;33529;49.242;8.670;2022-10-03T16:32:23;15.60;99.90
47765;DHT22;33529;49.242;8.670;2022-10-03T16:34:51;15.60;99.90
47765;DHT22;33529;49.242;8.670;2022-10-03T16:37:24;15.60;99.90
47765;DHT22;33529;49.242;8.670;2022-10-03T16:40:00;15.60;99.90
47765;DHT22;33529;49.242;8.670;2022-10-03T16:42:41;15.60;99.90
47765;DHT22;33529;49.242;8.670;2022-10-03T16:45:26;15.60;99.90
47765;DHT22;33529;49.242;8.670;2022-10-03T16:47:55;15.50;99.90
47765;DHT22;33529;49.242;8.670;2022-10-03T16:50:51;15.40;99.90
47765;DHT22;33529;49.242;8.670;2022-10-03T16:53:20;15.30;99.90
47765;DHT22;33529;49.242;8.670;2022-10-03T16:55:54;15.20;99.90
47765;DHT22;33529;49.242;8.670;2022-10-03T16:58:28;15.00;99.90
47765;DHT22;33529;49.242;8.670;2022-10-03T17:01:03;14.80;99.90
47765;DHT22;33529;49.242;8.670;2022-10-03T17:04:34;14.70;99.90
47765;DHT22;33529;49.242;8.670;2022-10-03T17:09:53;14.40;99.90
47765;DHT22;33529;49.242;8.670;2022-10-03T17:12:32;14.30;99.90
47765;DHT22;33529;49.242;8.670;2022-10-03T17:15:23;14.20;99.90
47765;DHT22;33529;49.242;8.670;2022-10-03T17:20:41;13.90;99.90
47765;DHT22;33529;49.242;8.670;2022-10-03T17:23:25;13.80;99.90
47765;DHT22;33529;49.242;8.670;2022-10-03T17:28:57;13.40;99.90
47765;DHT22;33529;49.242;8.670;2022-10-03T17:35:25;13.20;99.90
47765;DHT22;33529;49.242;8.670;2022-10-03T17:42:50;12.90;99.90
47765;DHT22;33529;49.242;8.670;2022-10-03T17:45:31;12.80;99.90
47765;DHT22;33529;49.242;8.670;2022-10-03T17:48:17;12.60;99.90
47765;DHT22;33529;49.242;8.670;2022-10-03T17:53:42;12.50;99.90
47765;DHT22;33529;49.242;8.670;2022-10-03T17:56:15;12.40;99.90
47765;DHT22;33529;49.242;8.670;2022-10-03T17:58:54;12.30;99.90
47765;DHT22;33529;49.242;8.670;2022-10-03T18:01:34;12.20;99.90
47765;DHT22;33529;49.242;8.670;2022-10-03T18:04:04;12.00;99.90
47765;DHT22;33529;49.242;8.670;2022-10-03T18:06:44;12.00;99.90
47765;DHT22;33529;49.242;8.670;2022-10-03T18:11:42;11.90;99.90
47765;DHT22;33529;49.242;8.670;2022-10-03T18:14:28;11.70;99.90
47765;DHT22;33529;49.242;8.670;2022-10-03T18:17:15;11.60;99.90
47765;DHT22;33529;49.242;8.670;2022-10-03T18:20:18;11.50;99.90
47765;DHT22;33529;49.242;8.670;2022-10-03T18:23:03;11.60;99.90
47765;DHT22;33529;49.242;8.670;2022-10-03T18:25:50;11.40;99.90
47765;DHT22;33529;49.242;8.670;2022-10-03T18:31:27;11.20;99.90
47765;DHT22;33529;49.242;8.670;2022-10-03T18:34:08;11.10;99.90
47765;DHT22;33529;49.242;8.670;2022-10-03T18:36:46;11.10;99.90
47765;DHT22;33529;49.242;8.670;2022-10-03T18:39:18;11.00;99.90
47765;DHT22;33529;49.242;8.670;2022-10-03T18:41:48;10.90;99.90
47765;DHT22;33529;49.242;8.670;2022-10-03T18:44:18;10.90;99.90
47765;DHT22;33529;49.242;8.670;2022-10-03T18:46:49;10.90;99.90
47765;DHT22;33529;49.242;8.670;2022-10-03T18:49:23;10.80;99.90
47765;DHT22;33529;49.242;8.670;2022-10-03T18:52:21;10.70;99.90
47765;DHT22;33529;49.242;8.670;2022-10-03T18:54:57;10.60;99.90
47765;DHT22;33529;49.242;8.670;2022-10-03T18:57:38;10.50;99.90
47765;DHT22;33529;49.242;8.670;2022-10-03T19:00:17;10.50;99.90
47765;DHT22;33529;49.242;8.670;2022-10-03T19:08:08;10.40;99.90
47765;DHT22;33529;49.242;8.670;2022-10-03T19:10:46;10.30;99.90
47765;DHT22;33529;49.242;8.670;2022-10-03T19:13:41;10.20;99.90
47765;DHT22;33529;49.242;8.670;2022-10-03T19:21:24;10.10;99.90
47765;DHT22;33529;49.242;8.670;2022-10-03T19:24:01;10.10;99.90
47765;DHT22;33529;49.242;8.670;2022-10-03T19:26:32;10.10;99.90
47765;DHT22;33529;49.242;8.670;2022-10-03T19:29:04;10.10;99.90
47765;DHT22;33529;49.242;8.670;2022-10-03T19:31:40;10.10;99.90
47765;DHT22;33529;49.242;8.670;2022-10-03T19:36:50;10.10;99.90
47765;DHT22;33529;49.242;8.670;2022-10-03T19:39:20;10.10;99.90
47765;DHT22;33529;49.242;8.670;2022-10-03T19:44:41;9.90;99.90
47765;DHT22;33529;49.242;8.670;2022-10-03T19:47:46;9.90;99.90
47765;DHT22;33529;49.242;8.670;2022-10-03T19:50:27;9.80;99.90
47765;DHT22;33529;49.242;8.670;2022-10-03T19:52:55;9.80;99.90
47765;DHT22;33529;49.242;8.670;2022-10-03T19:57:58;9.90;99.90
47765;DHT22;33529;49.242;8.670;2022-10-03T20:00:31;9.90;99.90
47765;DHT22;33529;49.242;8.670;2022-10-03T20:03:37;10.00;99.90
47765;DHT22;33529;49.242;8.670;2022-10-03T20:06:29;10.00;99.90
47765;DHT22;33529;49.242;8.670;2022-10-03T20:09:05;9.90;99.90
47765;DHT22;33529;49.242;8.670;2022-10-03T20:11:47;9.80;99.90
47765;DHT22;33529;49.242;8.670;2022-10-03T20:14:18;9.70;99.90
47765;DHT22;33529;49.242;8.670;2022-10-03T20:16:50;9.70;99.90
47765;DHT22;33529;49.242;8.670;2022-10-03T20:19:51;9.70;99.90
47765;DHT22;33529;49.242;8.670;2022-10-03T20:22:23;9.60;99.90
47765;DHT22;33529;49.242;8.670;2022-10-03T20:24:50;9.50;99.90
47765;DHT22;33529;49.242;8.670;2022-10-03T20:27:38;9.40;99.90
47765;DHT22;33529;49.242;8.670;2022-10-03T20:32:50;9.30;99.90
47765;DHT22;33529;49.242;8.670;2022-10-03T20:35:24;9.30;99.90
47765;DHT22;33529;49.242;8.670;2022-10-03T20:44:04;9.20;99.90
47765;DHT22;33529;49.242;8.670;2022-10-03T20:54:22;9.30;99.90
47765;DHT22;33529;49.242;8.670;2022-10-03T20:59:54;9.40;99.90
47765;DHT22;33529;49.242;8.670;2022-10-03T21:02:35;9.50;99.90
47765;DHT22;33529;49.242;8.670;2022-10-03T21:05:13;9.60;99.90
47765;DHT22;33529;49.242;8.670;2022-10-03T21:07:50;9.60;99.90
47765;DHT22;33529;49.242;8.670;2022-10-03T21:10:38;9.50;99.90
47765;DHT22;33529;49.242;8.670;2022-10-03T21:13:19;9.60;99.90
47765;DHT22;33529;49.242;8.670;2022-10-03T21:15:51;9.60;99.90
47765;DHT22;33529;49.242;8.670;2022-10-03T21:18:31;9.50;99.90
47765;DHT22;33529;49.242;8.670;2022-10-03T21:21:02;9.60;99.90
47765;DHT22;33529;49.242;8.670;2022-10-03T21:23:34;9.50;99.90
47765;DHT22;33529;49.242;8.670;2022-10-03T21:26:05;9.50;99.90
47765;DHT22;33529;49.242;8.670;2022-10-03T21:28:35;9.40;99.90
47765;DHT22;33529;49.242;8.670;2022-10-03T21:31:20;9.40;99.90
47765;DHT22;33529;49.242;8.670;2022-10-03T21:36:49;9.30;99.90
47765;DHT22;33529;49.242;8.670;2022-10-03T21:39:38;9.40;99.90
47765;DHT22;33529;49.242;8.670;2022-10-03T21:43:19;9.50;99.90
47765;DHT22;33529;49.242;8.670;2022-10-03T21:46:04;9.50;99.90
47765;DHT22;33529;49.242;8.670;2022-10-03T21:50:59;9.50;99.90
47765;DHT22;33529;49.242;8.670;2022-10-03T21:54:01;9.50;99.90
47765;DHT22;33529;49.242;8.670;2022-10-03T22:02:43;9.50;99.90
47765;DHT22;33529;49.242;8.670;2022-10-03T22:05:27;9.50;99.90
47765;DHT22;33529;49.242;8.670;2022-10-03T22:07:56;9.50;99.90
47765;DHT22;33529;49.242;8.670;2022-10-03T22:10:27;9.40;99.90
47765;DHT22;33529;49.242;8.670;2022-10-03T22:12:59;9.40;99.90
47765;DHT22;33529;49.242;8.670;2022-10-03T22:15:35;9.30;99.90
47765;DHT22;33529;49.242;8.670;2022-10-03T22:18:10;9.30;99.90
47765;DHT22;33529;49.242;8.670;2022-10-03T22:20:53;9.30;99.90
47765;DHT22;33529;49.242;8.670;2022-10-03T22:23:44;9.30;99.90
47765;DHT22;33529;49.242;8.670;2022-10-03T22:29:14;9.20;99.90
47765;DHT22;33529;49.242;8.670;2022-10-03T22:32:14;9.10;99.90
47765;DHT22;33529;49.242;8.670;2022-10-03T22:37:25;9.10;99.90
47765;DHT22;33529;49.242;8.670;2022-10-03T22:39:54;9.10;99.90
47765;DHT22;33529;49.242;8.670;2022-10-03T22:42:24;9.10;99.90
47765;DHT22;33529;49.242;8.670;2022-10-03T22:44:52;9.10;99.90
47765;DHT22;33529;49.242;8.670;2022-10-03T22:47:28;9.00;99.90
47765;DHT22;33529;49.242;8.670;2022-10-03T22:49:59;9.00;99.90
47765;DHT22;33529;49.242;8.670;2022-10-03T22:52:29;9.00;99.90
47765;DHT22;33529;49.242;8.670;2022-10-03T22:54:59;8.80;99.90
47765;DHT22;33529;49.242;8.670;2022-10-03T22:57:28;8.90;99.90
47765;DHT22;33529;49.242;8.670;2022-10-03T23:00:06;8.80;99.90
47765;DHT22;33529;49.242;8.670;2022-10-03T23:02:38;8.80;99.90
47765;DHT22;33529;49.242;8.670;2022-10-03T23:05:15;8.80;99.90
47765;DHT22;33529;49.242;8.670;2022-10-03T23:07:50;8.70;99.90
47765;DHT22;33529;49.242;8.670;2022-10-03T23:10:35;8.70;99.90
47765;DHT22;33529;49.242;8.670;2022-10-03T23:15:57;8.70;99.90
47765;DHT22;33529;49.242;8.670;2022-10-03T23:19:26;8.70;99.90
47765;DHT22;33529;49.242;8.670;2022-10-03T23:21:31;8.60;99.90
47765;DHT22;33529;49.242;8.670;2022-10-03T23:24:08;8.70;99.90
47765;DHT22;33529;49.242;8.670;2022-10-03T23:27:18;8.70;99.90
47765;DHT22;33529;49.242;8.670;2022-10-03T23:35:25;8.60;99.90
47765;DHT22;33529;49.242;8.670;2022-10-03T23:37:58;8.60;99.90
47765;DHT22;33529;49.242;8.670;2022-10-03T23:40:58;8.60;99.90
47765;DHT22;33529;49.242;8.670;2022-10-03T23:43:50;8.60;99.90
47765;DHT22;33529;49.242;8.670;2022-10-03T23:46:23;8.50;99.90
47765;DHT22;33529;49.242;8.670;2022-10-03T23:48:57;8.50;99.90
47765;DHT22;33529;49.242;8.670;2022-10-03T23:51:31;8.40;99.90
47765;DHT22;33529;49.242;8.670;2022-10-03T23:54:03;8.50;99.90
47765;DHT22;33529;49.242;8.670;2022-10-03T23:56:37;8.50;99.90
47765;DHT22;33529;49.242;8.670;2022-10-03T23:59:14;8.50;99.90
